Candor, North Carolina
Current Conditions -  °F | °C
As of 6:55 AM on Thursday 27 Nov 2014 (Local Time) from KSOP Reporting Station
Broken Clouds Broken Clouds  
Wind Chill: 37°   Ceiling: 7500
Heat Index: 37°   Visibility: 10mi
Dew Point: -11°   Wind: 3mph
Humidity: 12%   Direction: 110°ESE
Pressure: 30"   Gusts: NA
Location:  35.3°N, 79.75°W
Report Text: KSOP 271155Z AUTO 11003KT 10SM BKN075 BKN080 03/M24 A3000 RMK AO1 70022 10040 20030 57003
Loading
Personal Weather Stations






























Interactive Weather Map New forecast layout! Learn more

10-Day Weather Forecast

Advertisements
Track Severe Weather on mobile